Řízení letového provozu České republiky
Letiste: LKKB Aktualizace: 19.09.2018 18:01:06  UTC
 METAR LKKB 19.09. 18:00 ...
METAR LKKB 191800Z 18005KT CAVOK 22/15 Q1020 NOSIG RMK BLU BLU=
 TAF LKKB 19.09. 17:00 ...
TAF LKKB 191700Z 1918/2018 20004KT CAVOK      BECMG 1918/1920 VRB02KT      PROB30 TEMPO 2000/2006 5000 BR NSC      BECMG 2008/2010 20008KT=